Time;durP1;ratioP1;P1;durP2;ratioP2;P2;SDS_P1;SDS_P2;PMS_P1;PMS_P2;Temp;Humidity;BMP_temperature;BMP_pressure;BME280_temperature;BME280_humidity;BME280_pressure;Samples;Min_cycle;Max_cycle;Signal;HPM_P1;HPM_P2
2021/11/05 00:02:01;;;;;;;0.85;0.85;;;6.50;99.90;;;;;;5069934;28;20496;-79
2021/11/05 00:04:27;;;;;;;0.70;0.70;;;6.60;99.90;;;;;;5073308;28;20177;-78
2021/11/05 00:06:53;;;;;;;0.70;0.70;;;6.60;99.90;;;;;;5070080;28;20037;-78
2021/11/05 00:09:19;;;;;;;0.95;0.75;;;6.70;99.90;;;;;;5106144;28;20032;-79
2021/11/05 00:11:45;;;;;;;0.70;0.70;;;6.70;99.90;;;;;;5075394;28;20089;-79
2021/11/05 00:14:11;;;;;;;1.08;1.02;;;6.90;99.90;;;;;;5091776;28;20041;-79
2021/11/05 00:16:36;;;;;;;0.80;0.80;;;6.80;99.90;;;;;;5076428;28;20132;-77
2021/11/05 00:19:03;;;;;;;0.70;0.70;;;6.80;99.90;;;;;;5074160;28;20075;-79
2021/11/05 00:21:28;;;;;;;;;;;6.80;99.90;;;;;;5075509;28;20052;-80
2021/11/05 00:23:54;;;;;;;0.73;0.73;;;6.80;99.90;;;;;;5071841;28;19925;-78
2021/11/05 00:26:20;;;;;;;1.52;0.90;;;6.80;99.90;;;;;;5079005;28;20546;-79
2021/11/05 00:28:46;;;;;;;0.77;0.77;;;6.60;99.90;;;;;;5083043;28;20067;-81
2021/11/05 00:31:11;;;;;;;0.98;0.98;;;6.30;99.90;;;;;;5077453;28;20098;-78
2021/11/05 00:33:37;;;;;;;0.90;0.90;;;6.50;99.90;;;;;;5105779;28;20397;-79
2021/11/05 00:36:03;;;;;;;1.55;1.38;;;6.40;99.90;;;;;;5075402;28;20044;-77
2021/11/05 00:38:28;;;;;;;1.60;1.50;;;6.40;99.90;;;;;;5101158;27;20428;-80
2021/11/05 00:40:54;;;;;;;1.00;0.90;;;6.30;99.90;;;;;;5110075;28;20060;-78
2021/11/05 00:43:20;;;;;;;1.25;1.15;;;6.30;99.90;;;;;;5074462;28;20051;-79
2021/11/05 00:45:46;;;;;;;;;;;6.30;99.90;;;;;;5110030;28;20051;-79
2021/11/05 00:48:12;;;;;;;3.00;1.25;;;6.20;99.90;;;;;;5082040;28;19916;-80
2021/11/05 00:50:37;;;;;;;0.85;0.85;;;6.20;99.90;;;;;;5093172;28;20048;-77
2021/11/05 00:53:03;;;;;;;0.60;0.60;;;6.20;99.90;;;;;;5107314;28;20397;-78
2021/11/05 00:55:29;;;;;;;0.70;0.70;;;6.20;99.90;;;;;;5072446;28;20130;-77
2021/11/05 00:57:55;;;;;;;0.60;0.60;;;6.10;99.90;;;;;;5103683;28;20036;-77
2021/11/05 01:00:22;;;;;;;0.80;0.80;;;6.10;99.90;;;;;;5091076;28;20511;-77
2021/11/05 01:02:48;;;;;;;1.10;1.00;;;6.10;99.90;;;;;;5105519;28;20040;-75
2021/11/05 01:05:16;;;;;;;1.58;1.05;;;6.10;99.90;;;;;;5071167;28;20385;-75
2021/11/05 01:07:41;;;;;;;0.90;0.90;;;6.10;99.90;;;;;;5093994;28;20049;-76
2021/11/05 01:10:08;;;;;;;1.95;1.75;;;6.00;99.90;;;;;;5076162;28;20051;-76
2021/11/05 01:12:34;;;;;;;0.60;0.60;;;5.90;99.90;;;;;;5071063;28;20028;-75
2021/11/05 01:15:00;;;;;;;5.35;1.90;;;6.00;99.90;;;;;;5106550;28;20516;-76
2021/11/05 01:17:25;;;;;;;0.88;0.88;;;6.10;99.90;;;;;;5101255;28;20493;-76
2021/11/05 01:19:51;;;;;;;0.73;0.73;;;6.00;99.90;;;;;;5114606;27;20094;-76
2021/11/05 01:22:17;;;;;;;2.00;1.50;;;6.00;99.90;;;;;;5066588;28;20049;-77
2021/11/05 01:24:43;;;;;;;1.33;1.23;;;6.00;99.90;;;;;;5071729;28;20043;-75
2021/11/05 01:27:09;;;;;;;1.38;0.88;;;5.90;99.90;;;;;;5091331;28;20091;-77
2021/11/05 01:29:35;;;;;;;0.95;0.95;;;5.70;99.90;;;;;;5108474;27;20044;-77
2021/11/05 01:32:01;;;;;;;1.58;1.42;;;5.80;99.90;;;;;;5059764;28;20138;-78
2021/11/05 01:34:27;;;;;;;1.90;1.35;;;5.80;99.90;;;;;;5072346;28;20040;-78
2021/11/05 01:36:53;;;;;;;0.93;0.93;;;5.80;99.90;;;;;;5103661;28;20036;-78
2021/11/05 01:39:19;;;;;;;2.03;1.58;;;5.70;99.90;;;;;;5112216;27;20043;-78
2021/11/05 01:41:45;;;;;;;1.00;1.00;;;5.70;99.90;;;;;;5069036;28;20056;-77
2021/11/05 01:44:11;;;;;;;1.33;1.23;;;5.70;99.90;;;;;;5070221;28;20051;-77
2021/11/05 01:46:42;;;;;;;;;;;5.80;99.90;;;;;;5064423;28;20489;-77
2021/11/05 01:49:12;;;;;;;1.17;0.90;;;5.80;99.90;;;;;;5088660;28;19921;-77
2021/11/05 01:51:38;;;;;;;1.17;1.08;;;5.80;99.90;;;;;;5067615;28;20068;-77
2021/11/05 01:54:08;;;;;;;1.10;1.10;;;5.80;99.90;;;;;;5072095;28;20041;-77
2021/11/05 01:56:35;;;;;;;2.72;1.20;;;5.80;99.90;;;;;;5064772;28;20505;-75
2021/11/05 01:59:02;;;;;;;2.35;2.22;;;5.80;99.90;;;;;;5109552;27;20120;-76
2021/11/05 02:01:28;;;;;;;1.15;1.00;;;5.80;99.90;;;;;;5069467;28;20055;-77
2021/11/05 02:03:53;;;;;;;1.42;1.33;;;5.80;99.90;;;;;;5071299;28;20394;-76
2021/11/05 02:06:23;;;;;;;1.77;1.58;;;5.70;99.90;;;;;;5101061;28;20037;-77
2021/11/05 02:08:51;;;;;;;1.60;1.35;;;5.70;99.90;;;;;;5096403;27;20036;-77
2021/11/05 02:11:19;;;;;;;0.80;0.80;;;5.80;99.90;;;;;;5080254;28;20040;-77
2021/11/05 02:13:46;;;;;;;2.60;2.40;;;5.70;99.90;;;;;;5102404;28;20481;-76
2021/11/05 02:16:13;;;;;;;1.38;1.25;;;5.70;99.90;;;;;;5106123;27;20072;-76
2021/11/05 02:18:43;;;;;;;5.38;1.80;;;5.70;99.90;;;;;;5071313;28;20048;-76
2021/11/05 02:21:15;;;;;;;2.13;1.65;;;5.60;99.90;;;;;;5053816;28;20036;-77
2021/11/05 02:23:42;;;;;;;1.35;1.25;;;5.60;99.90;;;;;;5065691;28;20044;-78
2021/11/05 02:26:08;;;;;;;6.63;1.80;;;5.60;99.90;;;;;;5074348;28;20036;-78
2021/11/05 02:28:39;;;;;;;2.38;1.92;;;5.60;99.90;;;;;;5068089;28;20067;-76
2021/11/05 02:31:05;;;;;;;1.75;1.45;;;5.60;99.90;;;;;;5103369;28;20068;-77
2021/11/05 02:33:31;;;;;;;1.27;1.17;;;5.60;99.90;;;;;;5104720;28;20063;-77
2021/11/05 02:35:57;;;;;;;1.08;1.08;;;5.60;99.90;;;;;;5070731;28;20571;-77
2021/11/05 02:38:24;;;;;;;3.95;1.10;;;5.60;99.90;;;;;;5106642;27;20072;-77
2021/11/05 02:40:51;;;;;;;1.05;0.95;;;5.60;99.90;;;;;;5057014;28;20056;-77
2021/11/05 02:43:18;;;;;;;2.00;1.38;;;5.60;99.90;;;;;;5102223;28;20572;-77
2021/11/05 02:45:51;;;;;;;1.48;1.38;;;5.60;99.90;;;;;;5098293;28;20040;-78
2021/11/05 02:48:17;;;;;;;1.10;1.00;;;5.80;99.90;;;;;;5104363;28;20131;-77
2021/11/05 02:50:43;;;;;;;1.80;1.30;;;5.60;99.90;;;;;;5069239;28;20460;-77
2021/11/05 02:53:10;;;;;;;1.30;1.20;;;5.70;99.90;;;;;;5068708;28;20052;-79
2021/11/05 02:55:36;;;;;;;2.22;1.65;;;5.70;99.90;;;;;;5104794;28;20123;-78
2021/11/05 02:58:02;;;;;;;2.92;1.20;;;5.40;99.90;;;;;;5069249;28;20054;-77
2021/11/05 03:00:28;;;;;;;2.10;1.13;;;5.70;99.90;;;;;;5104152;28;20051;-76
2021/11/05 03:02:54;;;;;;;7.72;1.35;;;5.60;99.90;;;;;;5067907;28;20051;-78
2021/11/05 03:05:20;;;;;;;0.63;0.63;;;5.70;99.90;;;;;;5103630;28;20090;-79
2021/11/05 03:07:45;;;;;;;0.80;0.80;;;5.70;99.90;;;;;;5106089;27;20150;-77
2021/11/05 03:10:14;;;;;;;0.95;0.90;;;5.70;99.90;;;;;;5087653;28;20094;-80
2021/11/05 03:12:41;;;;;;;1.00;0.95;;;5.80;99.90;;;;;;5102969;28;20049;-76
2021/11/05 03:15:07;;;;;;;1.00;0.85;;;5.90;99.90;;;;;;5071384;28;20051;-78
2021/11/05 03:17:33;;;;;;;1.13;1.08;;;5.90;99.90;;;;;;5108829;27;20041;-77
2021/11/05 03:19:59;;;;;;;1.00;1.00;;;5.90;99.90;;;;;;5069484;28;20044;-79
2021/11/05 03:22:25;;;;;;;2.17;1.27;;;6.10;99.90;;;;;;5069381;28;20051;-79
2021/11/05 03:24:51;;;;;;;1.45;1.35;;;6.00;99.90;;;;;;5086942;28;20048;-78
2021/11/05 03:27:17;;;;;;;1.27;1.10;;;5.80;99.90;;;;;;5103060;27;20390;-78
2021/11/05 03:29:43;;;;;;;1.67;1.20;;;6.30;99.90;;;;;;5069216;28;20039;-79
2021/11/05 03:32:09;;;;;;;0.70;0.70;;;6.20;99.90;;;;;;5092026;28;20394;-78
2021/11/05 03:34:35;;;;;;;0.98;0.95;;;6.20;99.90;;;;;;5100951;28;20416;-77
2021/11/05 03:37:01;;;;;;;1.00;1.00;;;6.20;99.90;;;;;;5070489;28;21410;-78
2021/11/05 03:39:27;;;;;;;0.80;0.80;;;6.20;99.90;;;;;;5068117;28;20392;-79
2021/11/05 03:41:53;;;;;;;0.73;0.73;;;6.30;99.90;;;;;;5086074;28;20048;-78
2021/11/05 03:44:19;;;;;;;0.63;0.63;;;6.30;99.90;;;;;;5069809;28;20040;-79
2021/11/05 03:46:45;;;;;;;1.30;1.20;;;6.40;99.90;;;;;;5069093;28;20036;-77
2021/11/05 03:49:10;;;;;;;0.75;0.65;;;6.60;99.90;;;;;;5102611;28;20097;-78
2021/11/05 03:51:37;;;;;;;2.33;1.17;;;6.60;99.90;;;;;;5067316;28;20059;-79
2021/11/05 03:54:03;;;;;;;0.70;0.70;;;6.70;99.90;;;;;;5103251;28;20048;-77
2021/11/05 03:56:29;;;;;;;;;;;6.90;99.90;;;;;;5069859;28;20048;-78
2021/11/05 03:58:55;;;;;;;0.75;0.75;;;6.90;99.90;;;;;;5083404;28;19916;-76
2021/11/05 04:01:21;;;;;;;0.85;0.85;;;7.00;99.90;;;;;;5068530;28;20045;-77
2021/11/05 04:03:50;;;;;;;;;;;7.00;99.90;;;;;;5085145;28;20040;-77
2021/11/05 04:06:18;;;;;;;1.33;1.10;;;7.00;99.90;;;;;;5084365;28;19947;-78
2021/11/05 04:08:44;;;;;;;0.98;0.98;;;7.10;99.90;;;;;;5102963;28;20041;-77
2021/11/05 04:11:10;;;;;;;0.70;0.70;;;7.20;99.90;;;;;;5069390;28;20047;-77
2021/11/05 04:13:36;;;;;;;1.33;1.23;;;7.40;99.90;;;;;;5068564;28;20036;-77
2021/11/05 04:16:02;;;;;;;0.95;0.77;;;7.00;99.90;;;;;;5109144;28;20028;-78
2021/11/05 04:18:27;;;;;;;;;;;7.00;99.90;;;;;;5100722;28;20432;-78
2021/11/05 04:20:53;;;;;;;1.15;1.00;;;7.00;99.90;;;;;;5099143;28;19916;-76
2021/11/05 04:23:19;;;;;;;14.13;0.93;;;7.10;99.90;;;;;;5102479;28;20072;-75
2021/11/05 04:25:46;;;;;;;0.50;0.50;;;6.70;99.90;;;;;;5100521;28;20040;-76
2021/11/05 04:28:14;;;;;;;0.73;0.70;;;6.70;99.90;;;;;;5071510;28;20043;-77
2021/11/05 04:30:39;;;;;;;0.77;0.77;;;7.00;99.90;;;;;;5067785;28;20076;-78
2021/11/05 04:33:06;;;;;;;0.70;0.70;;;6.70;99.90;;;;;;5057126;28;20084;-79
2021/11/05 04:35:31;;;;;;;;;;;6.60;99.90;;;;;;5105116;28;20503;-79
2021/11/05 04:37:57;;;;;;;0.52;0.52;;;6.60;99.90;;;;;;5082220;28;20004;-76
2021/11/05 04:40:23;;;;;;;0.70;0.70;;;6.50;99.90;;;;;;5106641;28;20057;-75
2021/11/05 04:42:49;;;;;;;1.35;1.25;;;6.40;99.90;;;;;;5071237;28;20101;-78
2021/11/05 04:45:15;;;;;;;1.08;1.08;;;6.30;99.90;;;;;;5106137;28;20047;-77
2021/11/05 04:47:41;;;;;;;0.70;0.70;;;6.30;99.90;;;;;;5105776;28;20117;-76
2021/11/05 04:50:08;;;;;;;1.00;0.95;;;6.20;99.90;;;;;;5106136;28;20505;-77
2021/11/05 04:52:35;;;;;;;1.00;0.75;;;6.20;99.90;;;;;;5069730;28;20051;-77
2021/11/05 04:55:01;;;;;;;0.73;0.73;;;6.30;99.90;;;;;;5060145;28;20052;-78
2021/11/05 04:57:27;;;;;;;0.73;0.73;;;6.20;99.90;;;;;;5107857;27;20036;-77
2021/11/05 04:59:53;;;;;;;0.70;0.70;;;6.20;99.90;;;;;;5102681;28;20141;-78
2021/11/05 05:02:19;;;;;;;0.50;0.50;;;6.20;99.90;;;;;;5106400;28;20041;-77
2021/11/05 05:04:46;;;;;;;0.77;0.77;;;6.30;99.90;;;;;;5085576;28;20044;-77
2021/11/05 05:07:13;;;;;;;0.77;0.77;;;6.30;99.90;;;;;;5107039;27;20098;-77
2021/11/05 05:09:39;;;;;;;14.45;1.23;;;6.50;99.90;;;;;;5086159;28;20036;-76
2021/11/05 05:12:05;;;;;;;1.40;1.20;;;6.40;99.90;;;;;;5106343;28;20123;-76
2021/11/05 05:14:31;;;;;;;5.18;0.80;;;6.50;99.90;;;;;;5099694;28;20083;-76
2021/11/05 05:16:57;;;;;;;1.77;1.17;;;6.50;99.90;;;;;;5066161;28;20044;-75
2021/11/05 05:19:23;;;;;;;0.70;0.70;;;6.60;99.90;;;;;;5072236;28;20060;-74
2021/11/05 05:21:48;;;;;;;1.92;0.82;;;6.50;99.90;;;;;;5064600;28;20037;-75
2021/11/05 05:24:14;;;;;;;0.90;0.90;;;6.50;99.90;;;;;;5099180;28;20753;-75
2021/11/05 05:26:41;;;;;;;0.85;0.85;;;6.50;99.90;;;;;;5105398;28;20083;-75
2021/11/05 05:29:06;;;;;;;1.17;1.08;;;6.50;99.90;;;;;;5071612;28;20051;-75
2021/11/05 05:31:33;;;;;;;1.55;0.82;;;6.50;99.90;;;;;;5071703;28;20049;-77
2021/11/05 05:33:58;;;;;;;0.93;0.93;;;6.50;99.90;;;;;;5069312;28;20033;-75
2021/11/05 05:36:24;;;;;;;1.48;0.65;;;6.50;99.90;;;;;;5079812;28;20043;-77
2021/11/05 05:38:51;;;;;;;0.95;0.93;;;6.40;99.90;;;;;;5105522;27;20103;-78
2021/11/05 05:41:17;;;;;;;1.05;1.05;;;6.40;99.90;;;;;;5104765;28;20095;-78
2021/11/05 05:43:43;;;;;;;1.02;0.90;;;6.50;99.90;;;;;;5106072;28;20084;-77
2021/11/05 05:46:09;;;;;;;0.73;0.73;;;6.50;99.90;;;;;;5105146;28;20115;-76
2021/11/05 05:48:35;;;;;;;0.80;0.80;;;6.50;99.90;;;;;;5072145;28;20051;-76
2021/11/05 05:51:01;;;;;;;0.70;0.70;;;6.50;99.90;;;;;;5068957;28;20048;-76
2021/11/05 05:53:26;;;;;;;1.27;1.17;;;6.70;99.90;;;;;;5105375;28;20045;-77
2021/11/05 05:55:52;;;;;;;1.13;1.02;;;6.70;99.90;;;;;;5067251;28;20044;-77
2021/11/05 05:58:18;;;;;;;7.47;1.02;;;6.70;99.90;;;;;;5105349;28;20049;-76
2021/11/05 06:00:44;;;;;;;;;;;7.00;99.90;;;;;;5100416;27;20051;-77
2021/11/05 06:03:10;;;;;;;0.70;0.70;;;6.90;99.90;;;;;;5105606;28;20306;-77
2021/11/05 06:05:37;;;;;;;0.70;0.70;;;7.00;99.90;;;;;;5099158;28;20049;-76
2021/11/05 06:08:03;;;;;;;0.60;0.60;;;7.00;99.90;;;;;;5105363;28;20068;-76
2021/11/05 06:10:29;;;;;;;2.67;2.00;;;7.00;99.90;;;;;;5067123;28;20044;-79
2021/11/05 06:12:54;;;;;;;1.17;1.15;;;7.10;99.90;;;;;;5087610;28;20119;-79
2021/11/05 06:15:21;;;;;;;0.65;0.65;;;7.10;99.90;;;;;;5071944;28;20501;-80
2021/11/05 06:17:47;;;;;;;0.75;0.75;;;7.10;99.90;;;;;;5083999;28;20496;-78
2021/11/05 06:20:13;;;;;;;0.55;0.55;;;7.20;99.90;;;;;;5076326;28;20056;-78
2021/11/05 06:22:38;;;;;;;0.60;0.60;;;7.20;99.90;;;;;;5109334;27;20029;-78
2021/11/05 06:25:05;;;;;;;1.40;1.30;;;7.20;99.90;;;;;;5086158;28;20044;-79
2021/11/05 06:27:31;;;;;;;0.77;0.77;;;7.20;99.90;;;;;;5087822;28;20048;-78
2021/11/05 06:29:56;;;;;;;3.40;1.67;;;7.10;99.90;;;;;;5070455;28;20554;-79
2021/11/05 06:32:23;;;;;;;0.60;0.60;;;7.10;99.90;;;;;;5081354;28;20401;-78
2021/11/05 06:34:49;;;;;;;;;;;7.10;99.90;;;;;;5070290;28;20477;-80
2021/11/05 06:37:14;;;;;;;3.13;0.65;;;7.00;99.90;;;;;;5064328;28;19924;-79
2021/11/05 06:39:41;;;;;;;1.25;1.15;;;6.90;99.90;;;;;;5103603;28;20044;-79
2021/11/05 06:42:07;;;;;;;0.45;0.45;;;6.80;99.90;;;;;;5076788;28;20477;-79
2021/11/05 06:44:34;;;;;;;1.27;0.80;;;6.70;99.90;;;;;;5082394;28;20037;-79
2021/11/05 06:47:00;;;;;;;0.60;0.60;;;6.60;99.90;;;;;;5067897;28;20082;-79
2021/11/05 06:49:26;;;;;;;;;;;6.60;99.90;;;;;;5070190;28;20079;-78
2021/11/05 06:51:54;;;;;;;1.38;1.38;;;6.50;99.90;;;;;;5103709;27;20381;-78
2021/11/05 06:54:24;;;;;;;1.27;1.17;;;6.60;99.90;;;;;;5104126;28;20072;-79
2021/11/05 06:56:50;;;;;;;0.75;0.75;;;6.40;99.90;;;;;;5070126;28;20040;-78
2021/11/05 06:59:16;;;;;;;0.60;0.60;;;6.50;99.90;;;;;;5095953;28;20053;-77
2021/11/05 07:01:42;;;;;;;0.70;0.70;;;6.20;99.90;;;;;;5101153;28;20043;-78
2021/11/05 07:04:08;;;;;;;0.75;0.75;;;6.20;99.90;;;;;;5095479;28;20045;-79
2021/11/05 07:06:33;;;;;;;0.63;0.63;;;6.20;99.90;;;;;;5087178;28;20387;-80
2021/11/05 07:08:59;;;;;;;0.65;0.65;;;6.10;99.90;;;;;;5070665;28;20072;-79
2021/11/05 07:11:25;;;;;;;1.75;1.13;;;6.10;99.90;;;;;;5104394;28;20044;-78
2021/11/05 07:13:51;;;;;;;1.45;1.35;;;6.10;99.90;;;;;;5084443;28;20071;-77
2021/11/05 07:16:17;;;;;;;1.83;1.73;;;6.20;99.90;;;;;;5111417;27;20048;-79
2021/11/05 07:18:42;;;;;;;0.90;0.90;;;6.20;99.90;;;;;;5104016;28;20040;-80
2021/11/05 07:21:09;;;;;;;0.55;0.55;;;6.40;99.90;;;;;;5103755;28;20044;-78
2021/11/05 07:23:35;;;;;;;0.60;0.60;;;6.50;99.90;;;;;;5071206;28;20102;-79
2021/11/05 07:26:06;;;;;;;1.08;1.00;;;6.60;99.90;;;;;;5088098;28;20068;-78
2021/11/05 07:28:32;;;;;;;0.85;0.80;;;6.80;99.90;;;;;;5091931;28;20045;-77
2021/11/05 07:30:58;;;;;;;2.58;1.65;;;7.00;99.90;;;;;;5072050;28;20059;-79
2021/11/05 07:33:24;;;;;;;3.22;1.05;;;7.20;99.90;;;;;;5060565;28;20044;-79
2021/11/05 07:35:49;;;;;;;3.60;1.17;;;7.30;99.90;;;;;;5078743;28;20071;-78
2021/11/05 07:38:15;;;;;;;0.95;0.95;;;7.50;99.90;;;;;;5070373;28;20047;-78
2021/11/05 07:40:41;;;;;;;1.23;1.02;;;7.60;99.90;;;;;;5052528;28;20421;-77
2021/11/05 07:43:07;;;;;;;0.80;0.80;;;7.70;99.90;;;;;;5107326;28;20489;-78
2021/11/05 07:45:32;;;;;;;1.20;1.10;;;7.80;99.90;;;;;;5071766;28;20377;-79
2021/11/05 07:47:58;;;;;;;0.55;0.55;;;7.90;99.90;;;;;;5070055;28;20041;-77
2021/11/05 07:50:27;;;;;;;0.70;0.70;;;8.00;99.90;;;;;;5069260;28;20048;-77
2021/11/05 07:52:53;;;;;;;0.70;0.70;;;8.10;99.90;;;;;;5070020;28;20040;-77
2021/11/05 07:55:19;;;;;;;0.77;0.77;;;8.10;99.90;;;;;;5069472;28;20047;-76
2021/11/05 07:57:45;;;;;;;0.73;0.73;;;8.20;99.90;;;;;;5070729;28;20095;-77
2021/11/05 08:00:12;;;;;;;0.85;0.85;;;8.30;99.90;;;;;;5071880;28;20643;-78
2021/11/05 08:02:39;;;;;;;0.77;0.77;;;8.30;99.90;;;;;;5103752;28;20444;-78
2021/11/05 08:05:05;;;;;;;0.60;0.60;;;8.30;99.90;;;;;;5052020;28;20040;-79
2021/11/05 08:07:31;;;;;;;;;;;8.40;99.90;;;;;;5107252;28;20079;-79
2021/11/05 08:09:56;;;;;;;0.90;0.90;;;8.40;99.90;;;;;;5107818;28;19971;-77
2021/11/05 08:12:22;;;;;;;1.15;1.02;;;8.50;99.90;;;;;;5102479;28;20048;-77
2021/11/05 08:14:48;;;;;;;0.52;0.52;;;8.50;99.90;;;;;;5074172;28;20036;-80
2021/11/05 08:17:14;;;;;;;1.17;1.10;;;8.50;99.90;;;;;;5073534;28;20044;-79
2021/11/05 08:19:39;;;;;;;2.70;1.35;;;8.60;99.90;;;;;;5073094;28;20485;-79
2021/11/05 08:22:06;;;;;;;1.23;1.13;;;8.60;99.90;;;;;;5092067;28;20379;-76
2021/11/05 08:24:31;;;;;;;0.60;0.60;;;8.60;99.90;;;;;;5107670;27;20482;-78
2021/11/05 08:26:57;;;;;;;0.93;0.93;;;8.60;99.90;;;;;;5052219;28;20068;-78
2021/11/05 08:29:23;;;;;;;0.57;0.57;;;8.60;99.90;;;;;;5102420;28;20045;-79
2021/11/05 08:31:49;;;;;;;1.40;1.30;;;8.60;99.90;;;;;;5072181;28;20045;-78
2021/11/05 08:34:15;;;;;;;;;;;8.70;99.90;;;;;;5070701;28;20497;-78
2021/11/05 08:36:40;;;;;;;1.13;1.02;;;8.70;99.90;;;;;;5106478;28;19959;-79
2021/11/05 08:39:07;;;;;;;0.90;0.85;;;8.70;99.90;;;;;;5094697;28;20076;-78
2021/11/05 08:41:34;;;;;;;0.73;0.73;;;8.70;99.90;;;;;;5091799;28;20055;-78
2021/11/05 08:44:00;;;;;;;0.93;0.80;;;8.70;99.90;;;;;;5074893;28;20041;-77
2021/11/05 08:46:29;;;;;;;1.00;0.90;;;8.70;99.90;;;;;;5073067;28;20082;-79
2021/11/05 08:48:58;;;;;;;0.80;0.80;;;8.80;99.90;;;;;;5088549;28;20381;-78
2021/11/05 08:51:25;;;;;;;1.08;1.00;;;8.80;99.90;;;;;;5071169;28;20054;-79
2021/11/05 08:53:51;;;;;;;0.63;0.63;;;8.80;99.90;;;;;;5069541;28;20045;-79
2021/11/05 08:56:17;;;;;;;0.80;0.80;;;8.70;99.90;;;;;;5089619;28;20495;-78
2021/11/05 08:58:44;;;;;;;0.77;0.77;;;8.70;99.90;;;;;;5106079;28;20044;-78
2021/11/05 09:01:10;;;;;;;1.10;1.00;;;8.70;99.90;;;;;;5073914;28;20040;-77
2021/11/05 09:03:36;;;;;;;1.25;0.70;;;8.70;99.90;;;;;;5056894;28;20162;-78
2021/11/05 09:06:03;;;;;;;0.75;0.75;;;8.80;99.90;;;;;;5065106;28;20186;-79
2021/11/05 09:08:30;;;;;;;0.88;0.85;;;8.80;99.90;;;;;;5104903;28;20048;-79
2021/11/05 09:11:00;;;;;;;0.80;0.80;;;8.90;99.90;;;;;;5081990;28;20508;-77
2021/11/05 09:13:27;;;;;;;0.90;0.90;;;8.90;99.90;;;;;;5054247;28;20129;-77
2021/11/05 09:15:52;;;;;;;;;;;8.90;99.90;;;;;;5103998;27;20056;-77
2021/11/05 09:18:18;;;;;;;4.38;2.05;;;9.00;99.90;;;;;;5069250;28;19915;-78
2021/11/05 09:20:45;;;;;;;0.68;0.68;;;9.10;99.90;;;;;;5068268;28;20047;-78
2021/11/05 09:23:11;;;;;;;0.95;0.95;;;8.70;99.90;;;;;;5067029;28;20036;-78
2021/11/05 09:25:36;;;;;;;0.70;0.70;;;9.40;99.90;;;;;;5084021;28;20127;-79
2021/11/05 09:28:02;;;;;;;0.70;0.70;;;9.50;99.90;;;;;;5097630;28;20037;-80
2021/11/05 09:30:29;;;;;;;0.60;0.60;;;;;;;;;;5070877;28;20040;-80
2021/11/05 09:32:56;;;;;;;0.60;0.60;;;9.80;99.90;;;;;;5064045;28;20390;-80
2021/11/05 09:35:23;;;;;;;0.65;0.65;;;9.90;99.90;;;;;;5064691;28;20068;-79
2021/11/05 09:37:50;;;;;;;0.90;0.90;;;10.10;99.90;;;;;;5080088;28;20047;-80
2021/11/05 09:40:19;;;;;;;0.75;0.75;;;10.20;99.90;;;;;;5084062;28;20052;-79
2021/11/05 09:42:47;;;;;;;1.05;0.73;;;10.30;99.90;;;;;;5071287;28;20156;-80
2021/11/05 09:45:15;;;;;;;0.75;0.75;;;10.40;99.90;;;;;;5071418;28;20067;-81
2021/11/05 09:47:42;;;;;;;1.17;1.10;;;10.50;99.90;;;;;;5048592;28;20036;-79
2021/11/05 09:50:16;;;;;;;1.08;0.98;;;10.50;99.90;;;;;;5071999;28;20394;-80
2021/11/05 09:52:44;;;;;;;0.60;0.60;;;10.60;99.90;;;;;;5096712;28;20111;-78
2021/11/05 09:55:11;;;;;;;0.70;0.70;;;10.70;99.90;;;;;;5087732;28;20397;-79
2021/11/05 09:57:36;;;;;;;;;;;10.90;99.90;;;;;;5069453;28;20151;-78
2021/11/05 10:00:04;;;;;;;0.88;0.73;;;11.20;99.90;;;;;;5096032;28;20077;-79
2021/11/05 10:02:30;;;;;;;0.63;0.63;;;11.40;99.90;;;;;;5085516;28;20329;-80
2021/11/05 10:04:58;;;;;;;1.30;0.93;;;11.60;99.90;;;;;;5075812;28;20060;-78
2021/11/05 10:07:25;;;;;;;0.50;0.50;;;11.70;99.90;;;;;;5074758;28;20087;-79
2021/11/05 10:09:54;;;;;;;0.70;0.70;;;11.80;99.90;;;;;;5104287;28;20043;-77
2021/11/05 10:12:22;;;;;;;0.85;0.60;;;11.80;99.90;;;;;;5096091;28;20052;-76
2021/11/05 10:15:05;;;;;;;0.52;0.52;;;11.80;99.90;;;;;;5075083;28;20137;-75
2021/11/05 10:17:32;;;;;;;0.60;0.60;;;11.90;99.90;;;;;;5070106;28;20051;-75
2021/11/05 10:20:07;;;;;;;0.60;0.60;;;11.90;99.90;;;;;;5069454;28;20343;-76
2021/11/05 10:22:50;;;;;;;0.43;0.43;;;11.90;99.90;;;;;;5063774;28;20052;-76
2021/11/05 10:25:19;;;;;;;5.18;0.60;;;11.90;99.90;;;;;;5068847;28;20052;-75
2021/11/05 10:27:45;;;;;;;2.75;0.73;;;12.00;99.90;;;;;;5069150;28;20386;-76
2021/11/05 10:30:12;;;;;;;0.50;0.50;;;12.00;99.90;;;;;;5051466;28;20075;-76
2021/11/05 10:32:52;;;;;;;1.13;1.02;;;12.00;99.90;;;;;;5070500;28;20036;-75
2021/11/05 10:35:20;;;;;;;0.73;0.73;;;12.00;99.90;;;;;;5052356;28;20040;-76
2021/11/05 10:37:46;;;;;;;0.40;0.40;;;11.90;99.90;;;;;;5071452;28;20044;-76
2021/11/05 10:40:13;;;;;;;0.60;0.60;;;11.90;99.90;;;;;;5087961;28;20052;-76
2021/11/05 10:42:41;;;;;;;0.50;0.50;;;11.80;99.90;;;;;;5067198;28;20045;-75
2021/11/05 10:45:16;;;;;;;2.00;0.60;;;11.60;99.90;;;;;;5087937;28;20037;-77
2021/11/05 10:48:11;;;;;;;7.60;1.02;;;11.60;99.90;;;;;;5103332;28;20040;-76
2021/11/05 10:50:50;;;;;;;0.68;0.65;;;11.60;99.90;;;;;;5057100;28;20047;-77
2021/11/05 10:53:19;;;;;;;0.82;0.82;;;11.70;99.90;;;;;;5063060;28;20051;-76
2021/11/05 10:55:57;;;;;;;0.50;0.50;;;11.70;99.90;;;;;;5104974;28;20048;-75
2021/11/05 10:58:28;;;;;;;0.43;0.43;;;11.60;99.90;;;;;;5078722;28;20040;-76
2021/11/05 11:01:00;;;;;;;1.45;0.68;;;11.60;99.90;;;;;;5080856;28;20048;-76
2021/11/05 11:03:32;;;;;;;0.50;0.50;;;11.80;99.90;;;;;;5072814;28;20098;-77
2021/11/05 11:06:19;;;;;;;0.50;0.50;;;11.90;99.90;;;;;;5103388;28;20040;-77
2021/11/05 11:08:47;;;;;;;0.68;0.60;;;12.20;99.90;;;;;;5065989;28;20443;-76
2021/11/05 11:11:30;;;;;;;0.52;0.52;;;12.30;99.90;;;;;;5087514;28;20045;-75
2021/11/05 11:14:17;;;;;;;4.57;1.05;;;12.30;99.90;;;;;;5097599;27;20544;-76
2021/11/05 11:16:58;;;;;;;0.55;0.55;;;12.20;99.90;;;;;;5077633;28;20040;-77
2021/11/05 11:19:34;;;;;;;0.55;0.55;;;12.10;99.90;;;;;;5104157;27;20041;-76
2021/11/05 11:22:08;;;;;;;0.55;0.55;;;12.10;99.90;;;;;;5104143;28;20457;-76
2021/11/05 11:24:39;;;;;;;0.60;0.60;;;12.10;99.90;;;;;;5092216;27;20176;-77
2021/11/05 11:27:08;;;;;;;0.68;0.68;;;12.10;99.90;;;;;;5070342;28;20044;-77
2021/11/05 11:29:35;;;;;;;0.50;0.50;;;12.10;99.90;;;;;;5066293;28;20048;-75
2021/11/05 11:32:03;;;;;;;0.60;0.60;;;12.30;99.90;;;;;;5070170;28;20052;-77
2021/11/05 11:34:29;;;;;;;5.88;1.05;;;12.30;99.90;;;;;;5102554;28;20494;-75
2021/11/05 11:36:58;;;;;;;0.50;0.50;;;12.30;99.90;;;;;;5070390;28;20109;-77
2021/11/05 11:39:25;;;;;;;2.58;0.70;;;12.10;99.90;;;;;;5104934;27;20056;-76
2021/11/05 11:41:52;;;;;;;1.13;1.02;;;11.80;99.90;;;;;;5103801;28;20064;-77
2021/11/05 11:44:22;;;;;;;0.98;0.80;;;11.70;99.90;;;;;;5102249;28;20041;-77
2021/11/05 11:47:08;;;;;;;1.50;0.80;;;11.70;99.90;;;;;;5070655;28;20048;-76
2021/11/05 11:49:39;;;;;;;0.60;0.60;;;11.70;99.90;;;;;;5067286;28;20033;-76
2021/11/05 11:52:14;;;;;;;1.77;0.65;;;11.70;99.90;;;;;;5096613;28;20134;-77
2021/11/05 11:54:42;;;;;;;0.50;0.50;;;11.60;99.90;;;;;;5098620;28;20052;-76
2021/11/05 11:57:32;;;;;;;0.45;0.45;;;11.50;99.90;;;;;;5099525;28;20049;-74
2021/11/05 12:00:09;;;;;;;2.53;0.77;;;11.40;99.90;;;;;;5068660;28;20048;-77
2021/11/05 12:02:41;;;;;;;0.38;0.38;;;11.40;99.90;;;;;;5102446;28;20141;-79
2021/11/05 12:05:19;;;;;;;0.60;0.60;;;11.30;99.90;;;;;;5068238;28;20393;-78
2021/11/05 12:08:14;;;;;;;2.05;1.45;;;11.30;99.90;;;;;;5090829;28;20041;-79
2021/11/05 12:10:51;;;;;;;0.55;0.55;;;11.40;99.90;;;;;;5061693;28;20494;-78
2021/11/05 12:13:35;;;;;;;;;;;11.40;99.90;;;;;;5069916;28;20580;-78
2021/11/05 12:16:18;;;;;;;0.70;0.70;;;11.40;99.90;;;;;;5082683;28;20453;-78
2021/11/05 12:18:59;;;;;;;0.40;0.40;;;11.50;99.90;;;;;;5091154;28;20041;-81
2021/11/05 12:21:35;;;;;;;0.60;0.60;;;11.60;99.90;;;;;;5070377;28;20150;-79
2021/11/05 12:26:50;;;;;;;3.78;0.75;;;11.50;99.90;;;;;;5104768;28;20045;-79
2021/11/05 12:29:34;;;;;;;0.85;0.85;;;11.40;99.90;;;;;;5103015;28;20048;-79
2021/11/05 12:32:19;;;;;;;0.85;0.85;;;11.30;99.90;;;;;;5104553;28;20070;-78
2021/11/05 12:34:52;;;;;;;0.60;0.60;;;11.20;99.90;;;;;;5071389;28;20516;-78
2021/11/05 12:37:36;;;;;;;0.73;0.68;;;11.30;99.90;;;;;;5070437;28;20497;-77
2021/11/05 12:40:21;;;;;;;1.08;0.90;;;11.20;99.90;;;;;;5069001;28;20048;-78
2021/11/05 12:42:57;;;;;;;0.45;0.45;;;11.30;99.90;;;;;;5103387;28;20185;-79
2021/11/05 12:45:53;;;;;;;1.00;0.95;;;11.40;99.90;;;;;;5069788;28;20059;-79
2021/11/05 12:48:40;;;;;;;0.57;0.57;;;11.50;99.90;;;;;;5085984;28;20124;-80
2021/11/05 12:51:09;;;;;;;2.83;0.60;;;11.50;99.90;;;;;;5068578;28;20539;-77
2021/11/05 12:53:37;;;;;;;0.65;0.57;;;11.50;99.90;;;;;;5070965;28;20029;-78
2021/11/05 12:56:03;;;;;;;0.60;0.60;;;11.50;99.90;;;;;;5071213;28;20562;-80
2021/11/05 12:58:32;;;;;;;0.60;0.60;;;11.50;99.90;;;;;;5072540;28;20123;-78
2021/11/05 13:00:58;;;;;;;3.42;0.90;;;11.60;99.90;;;;;;5072410;28;20040;-79
2021/11/05 13:03:24;;;;;;;3.75;1.02;;;11.60;99.90;;;;;;5099726;28;20079;-80
2021/11/05 13:06:00;;;;;;;1.10;0.70;;;11.70;99.90;;;;;;5071613;28;20455;-78